| time (UTC) | temp C | wind direction | speed KPH | gust KPH | rain 1hr cm | rain 24hr cm | rain mn cm | humidity % | barometer mb |
| 20260906174516 | 34 | 360 | 4.8 | 9.7 | 0.00 | 0.00 | 0.00 | 65 | 1015.7 |
| 20260906173028 | 33 | 360 | 4.8 | 9.7 | 0.00 | 0.00 | 0.00 | 67 | 1016.1 |
| 20260906171604 | 33 | 360 | 6.4 | 11.3 | 0.00 | 0.00 | 0.00 | 66 | 1016.3 |
| 20260906170006 | 33 | 360 | 1.6 | 11.3 | 0.00 | 0.00 | 0.00 | 70 | 1016.5 |
| 20260906164523 | 32 | 360 | 6.4 | 11.3 | 0.00 | 0.00 | 0.00 | 71 | 1016.7 |
| 20260906163038 | 31 | 360 | 4.8 | 9.7 | 0.00 | 0.00 | 0.00 | 74 | 1016.7 |
| 20260906161600 | 30 | 360 | 0.0 | 8.0 | 0.00 | 0.00 | 0.00 | 76 | 1016.6 |
| 20260906160015 | 30 | 360 | 6.4 | 9.7 | 0.00 | 0.00 | 0.00 | 77 | 1016.6 |
| 20260906154542 | 29 | 360 | 6.4 | 12.9 | 0.00 | 0.00 | 0.00 | 80 | 1016.5 |
| 20260906153048 | 28 | 360 | 4.8 | 12.9 | 0.00 | 0.00 | 0.00 | 81 | 1016.4 |
| 20260906151605 | 28 | 360 | 4.8 | 11.3 | 0.00 | 0.00 | 0.00 | 82 | 1016.5 |
| 20260906150018 | 27 | 360 | 3.2 | 9.7 | 0.00 | 0.00 | 0.00 | 83 | 1016.4 |
| 20260906144534 | 27 | 360 | 6.4 | 11.3 | 0.00 | 0.00 | 0.00 | 84 | 1016.5 |
| 20260906143053 | 27 | 360 | 8.0 | 14.5 | 0.00 | 0.00 | 0.00 | 85 | 1016.5 |
| 20260906141504 | 26 | 360 | 6.4 | 14.5 | 0.00 | 0.00 | 0.00 | 86 | 1016.5 |
| 20260906140022 | 26 | 360 | 8.0 | 14.5 | 0.00 | 0.00 | 0.00 | 87 | 1016.5 |
| 20260906134535 | 26 | 360 | 4.8 | 11.3 | 0.00 | 0.00 | 0.00 | 88 | 1016.4 |
| 20260906133104 | 25 | 360 | 1.6 | 6.4 | 0.00 | 0.00 | 0.00 | 88 | 1016.3 |
| 20260906131512 | 25 | 360 | 3.2 | 6.4 | 0.00 | 0.00 | 0.00 | 88 | 1016.2 |
| 20260906130028 | 24 | 360 | 1.6 | 6.4 | 0.00 | 0.00 | 0.00 | 88 | 1016.1 |
| 20260906124542 | 24 | 360 | 1.6 | 3.2 | 0.00 | 0.00 | 0.00 | 88 | 1016.0 |
| 20260906123056 | 24 | 360 | 1.6 | 4.8 | 0.00 | 0.00 | 0.00 | 88 | 1015.7 |
| 20260906121508 | 24 | 360 | 1.6 | 4.8 | 0.00 | 0.00 | 0.00 | 87 | 1015.7 |
| 20260906120025 | 24 | 360 | 1.6 | 3.2 | 0.00 | 0.00 | 0.00 | 87 | 1015.6 |
| 20260906114548 | 24 | 360 | 0.0 | 3.2 | 0.00 | 0.00 | 0.00 | 87 | 1015.4 |
| 20260906113056 | 24 | 360 | 1.6 | 3.2 | 0.00 | 0.00 | 0.00 | 86 | 1015.3 |
| 20260906111516 | 24 | 360 | 0.0 | 3.2 | 0.00 | 0.00 | 0.00 | 86 | 1015.0 |
| 20260906110026 | 24 | 360 | 4.8 | 8.0 | 0.00 | 0.00 | 0.00 | 86 | 1015.0 |
| 20260906104550 | 24 | 360 | 0.0 | 1.6 | 0.00 | 0.00 | 0.00 | 85 | 1015.0 |
| 20260906103101 | 25 | 360 | 0.0 | 4.8 | 0.00 | 0.00 | 0.00 | 85 | 1015.0 |
| 20260906101520 | 25 | 360 | 0.0 | 1.6 | 0.00 | 0.00 | 0.00 | 85 | 1014.9 |
| 20260906100033 | 25 | 360 | 0.0 | 3.2 | 0.00 | 0.00 | 0.00 | 85 | 1014.9 |
| 20260906094600 | 25 | 360 | 1.6 | 3.2 | 0.00 | 0.00 | 0.00 | 85 | 1014.8 |
| 20260906093131 | 25 | 360 | 1.6 | 4.8 | 0.00 | 0.00 | 0.00 | 85 | 1014.7 |
| 20260906091525 | 25 | 360 | 0.0 | 0.0 | 0.00 | 0.00 | 0.00 | 84 | 1014.6 |
| 20260906090038 | 25 | 360 | 4.8 | 8.0 | 0.00 | 0.00 | 0.00 | 84 | 1014.6 |
| 20260906084554 | 25 | 360 | 0.0 | 4.8 | 0.00 | 0.00 | 0.00 | 83 | 1014.3 |
| 20260906083008 | 25 | 360 | 0.0 | 6.4 | 0.00 | 0.00 | 0.00 | 83 | 1014.4 |
| 20260906081533 | 25 | 360 | 0.0 | 3.2 | 0.00 | 0.00 | 0.00 | 83 | 1014.3 |
| 20260906080042 | 25 | 360 | 0.0 | 0.0 | 0.00 | 0.00 | 0.00 | 84 | 1014.3 |
| 20260906074502 | 25 | 360 | 0.0 | 3.2 | 0.00 | 0.00 | 0.00 | 85 | 1014.3 |
| 20260906073019 | 25 | 360 | 0.0 | 1.6 | 0.00 | 0.00 | 0.00 | 84 | 1014.2 |
| 20260906071528 | 25 | 360 | 1.6 | 3.2 | 0.00 | 0.00 | 0.00 | 84 | 1014.1 |
| 20260906070042 | 25 | 360 | 0.0 | 0.0 | 0.00 | 0.00 | 0.00 | 82 | 1014.3 |
| 20260906064506 | 27 | 360 | 1.6 | 3.2 | 0.00 | 0.00 | 0.00 | 79 | 1014.6 |
| 20260906063026 | 27 | 360 | 0.0 | 3.2 | 0.00 | 0.00 | 0.00 | 79 | 1014.6 |
| 20260906061542 | 26 | 360 | 0.0 | 4.8 | 0.00 | 0.00 | 0.00 | 80 | 1014.6 |
| 20260906060008 | 26 | 360 | 0.0 | 4.8 | 0.00 | 0.00 | 0.00 | 80 | 1014.7 |
| 20260906054525 | 26 | 360 | 1.6 | 6.4 | 0.00 | 0.00 | 0.00 | 81 | 1014.7 |
| 20260906053048 | 26 | 360 | 1.6 | 12.9 | 0.00 | 0.00 | 0.00 | 80 | 1014.9 |
| 20260906051607 | 26 | 360 | 0.0 | 0.0 | 0.00 | 0.00 | 0.00 | 78 | 1014.6 |
| 20260906050022 | 26 | 360 | 0.0 | 3.2 | 0.00 | 0.00 | 0.00 | 78 | 1014.6 |
| 20260906044534 | 26 | 360 | 0.0 | 3.2 | 0.00 | 0.00 | 0.00 | 78 | 1014.5 |
| 20260906043047 | 26 | 360 | 1.6 | 3.2 | 0.00 | 0.00 | 0.00 | 77 | 1014.6 |
| 20260906041503 | 27 | 360 | 0.0 | 0.0 | 0.00 | 0.00 | 0.00 | 76 | 1014.5 |
| 20260906040020 | 27 | 360 | 0.0 | 4.8 | 0.00 | 0.00 | 0.00 | 74 | 1014.4 |
| 20260906034543 | 28 | 360 | 0.0 | 0.0 | 0.00 | 0.00 | 0.00 | 72 | 1014.3 |
| 20260906033055 | 28 | 360 | 0.0 | 0.0 | 0.00 | 0.00 | 0.00 | 71 | 1014.1 |
| 20260906031510 | 28 | 360 | 0.0 | 0.0 | 0.00 | 0.00 | 0.00 | 71 | 1014.0 |
| 20260906030024 | 28 | 360 | 0.0 | 0.0 | 0.00 | 0.00 | 0.00 | 68 | 1013.9 |
| 20260906024550 | 30 | 360 | 0.0 | 0.0 | 0.00 | 0.00 | 0.00 | 66 | 1013.7 |
| 20260906023055 | 30 | 360 | 0.0 | 0.0 | 0.00 | 0.00 | 0.00 | 64 | 1013.6 |
| 20260906023001 | 30 | 360 | 0.0 | 0.0 | 0.00 | 0.00 | 0.00 | 64 | 1013.6 |
| 20260906021527 | 30 | 360 | 0.0 | 1.6 | 0.00 | 0.00 | 0.00 | 62 | 1013.4 |
| 20260906020044 | 31 | 360 | 0.0 | 0.0 | 0.00 | 0.00 | 0.00 | 60 | 1013.3 |
| 20260906014647 | 31 | 360 | 0.0 | 0.0 | 0.00 | 0.00 | 0.00 | 60 | 1013.1 |
| 20260906013034 | 31 | 360 | 1.6 | 4.8 | 0.00 | 0.00 | 0.00 | 60 | 1012.9 |
| 20260906011528 | 31 | 360 | 0.0 | 1.6 | 0.00 | 0.00 | 0.00 | 59 | 1012.9 |
| 20260906010050 | 31 | 360 | 0.0 | 3.2 | 0.00 | 0.00 | 0.00 | 62 | 1012.9 |
| 20260906004508 | 31 | 360 | 0.0 | 0.0 | 0.00 | 0.00 | 0.00 | 63 | 1012.8 |
| 20260906003035 | 31 | 360 | 0.0 | 0.0 | 0.00 | 0.00 | 0.00 | 62 | 1012.8 |
| 20260906001545 | 33 | 360 | 0.0 | 0.0 | 0.00 | 0.00 | 0.00 | 60 | 1012.8 |
| 20260906000005 | 33 | 360 | 0.0 | 0.0 | 0.00 | 0.00 | 0.00 | 57 | 1012.7 |
| 20260905234516 | 35 | 360 | 0.0 | 0.0 | 0.00 | 0.00 | 0.00 | 56 | 1012.7 |
| 20260905233045 | 35 | 360 | 0.0 | 0.0 | 0.00 | 0.00 | 0.00 | 55 | 1012.6 |
| 20260905231555 | 35 | 360 | 1.6 | 4.8 | 0.00 | 0.00 | 0.00 | 53 | 1012.6 |
| 20260905230006 | 35 | 360 | 0.0 | 3.2 | 0.00 | 0.00 | 0.00 | 52 | 1012.6 |
| 20260905224525 | 35 | 360 | 1.6 | 6.4 | 0.00 | 0.00 | 0.00 | 51 | 1012.6 |
| 20260905223043 | 35 | 360 | 0.0 | 8.0 | 0.00 | 0.00 | 0.00 | 52 | 1012.5 |
| 20260905221615 | 35 | 360 | 3.2 | 8.0 | 0.00 | 0.00 | 0.00 | 50 | 1012.5 |
| 20260905221506 | 35 | 360 | 3.2 | 8.0 | 0.00 | 0.00 | 0.00 | 50 | 1012.5 |
| 20260905220015 | 35 | 360 | 0.0 | 8.0 | 0.00 | 0.00 | 0.00 | 51 | 1012.8 |
| 20260905214536 | 35 | 360 | 1.6 | 6.4 | 0.00 | 0.00 | 0.00 | 52 | 1012.9 |